createdAt,value
2023-09-26T00:01:33.770Z,15.45
2023-09-26T00:04:01.990Z,15.44
2023-09-26T00:06:29.609Z,15.43
2023-09-26T00:08:56.913Z,15.43
2023-09-26T00:11:26.288Z,15.42
2023-09-26T00:13:53.580Z,15.42
2023-09-26T00:16:20.998Z,15.41
2023-09-26T00:18:48.648Z,15.40
2023-09-26T00:21:16.073Z,15.40
2023-09-26T00:23:43.597Z,15.38
2023-09-26T00:26:12.248Z,15.36
2023-09-26T00:28:45.097Z,15.33
2023-09-26T00:31:12.392Z,15.32
2023-09-26T00:33:40.060Z,15.31
2023-09-26T00:36:09.174Z,15.28
2023-09-26T00:38:37.106Z,15.26
2023-09-26T00:41:04.699Z,15.25
2023-09-26T00:43:32.476Z,15.24
2023-09-26T00:46:01.963Z,15.24
2023-09-26T00:48:29.843Z,15.23
2023-09-26T00:50:59.060Z,15.21
2023-09-26T00:53:28.114Z,15.22
2023-09-26T00:55:57.104Z,15.20
2023-09-26T00:58:25.200Z,15.17
2023-09-26T01:00:56.742Z,15.17
2023-09-26T01:03:24.268Z,15.18
2023-09-26T01:05:51.850Z,15.17
2023-09-26T01:08:20.739Z,15.15
2023-09-26T01:10:48.019Z,15.15
2023-09-26T01:13:15.428Z,15.15
2023-09-26T01:15:44.760Z,15.13
2023-09-26T01:18:14.678Z,15.14
2023-09-26T01:20:46.261Z,15.14
2023-09-26T01:23:16.191Z,15.15
2023-09-26T01:25:44.388Z,15.14
2023-09-26T01:28:15.550Z,15.13
2023-09-26T01:30:43.489Z,15.12
2023-09-26T01:33:17.807Z,15.11
2023-09-26T01:35:45.211Z,15.09
2023-09-26T01:38:13.116Z,15.07
2023-09-26T01:40:42.185Z,15.07
2023-09-26T01:43:09.903Z,15.04
2023-09-26T01:45:37.339Z,15.01
2023-09-26T01:48:10.362Z,14.97
2023-09-26T01:50:39.542Z,14.93
2023-09-26T01:53:10.318Z,14.89
2023-09-26T01:55:40.511Z,14.85
2023-09-26T01:58:07.929Z,14.82
2023-09-26T02:00:36.177Z,14.80
2023-09-26T02:03:03.841Z,14.79
2023-09-26T02:05:31.155Z,14.77
2023-09-26T02:07:58.451Z,14.74
2023-09-26T02:10:25.939Z,14.70
2023-09-26T02:12:53.476Z,14.67
2023-09-26T02:15:21.268Z,14.65
2023-09-26T02:17:48.655Z,14.62
2023-09-26T02:20:21.213Z,14.61
2023-09-26T02:22:53.162Z,14.59
2023-09-26T02:25:21.480Z,14.58
2023-09-26T02:27:50.034Z,14.56
2023-09-26T02:30:20.121Z,14.54
2023-09-26T02:32:47.688Z,14.52
2023-09-26T02:35:17.135Z,14.50
2023-09-26T02:37:45.581Z,14.50
2023-09-26T02:40:14.501Z,14.49
2023-09-26T02:42:46.223Z,14.47
2023-09-26T02:45:14.813Z,14.45
2023-09-26T02:47:44.773Z,14.42
2023-09-26T02:50:13.718Z,14.40
2023-09-26T02:52:43.628Z,14.39
2023-09-26T02:55:12.166Z,14.37
2023-09-26T02:57:39.828Z,14.32
2023-09-26T03:00:18.977Z,14.29
2023-09-26T03:02:48.538Z,14.27
2023-09-26T03:05:17.782Z,14.23
2023-09-26T03:07:46.423Z,14.24
2023-09-26T03:10:15.300Z,14.23
2023-09-26T03:12:48.507Z,14.23
2023-09-26T03:15:16.349Z,14.22
2023-09-26T03:17:44.132Z,14.20
2023-09-26T03:20:16.010Z,14.17
2023-09-26T03:22:43.712Z,14.13
2023-09-26T03:25:11.573Z,14.09
2023-09-26T03:27:39.286Z,14.04
2023-09-26T03:30:09.255Z,13.98
2023-09-26T03:32:36.913Z,13.93
2023-09-26T03:35:06.821Z,13.89
2023-09-26T03:37:34.211Z,13.83
2023-09-26T03:40:01.726Z,13.79
2023-09-26T03:42:29.076Z,13.76
2023-09-26T03:44:56.344Z,13.72
2023-09-26T03:47:23.833Z,13.67
2023-09-26T03:49:54.049Z,13.63
2023-09-26T03:52:21.418Z,13.59
2023-09-26T03:54:48.816Z,13.56
2023-09-26T03:57:16.387Z,13.52
2023-09-26T03:59:43.663Z,13.48
2023-09-26T04:02:11.060Z,13.45
2023-09-26T04:04:38.754Z,13.40
2023-09-26T04:07:08.200Z,13.36
2023-09-26T04:09:36.406Z,13.32
2023-09-26T04:12:05.592Z,13.30
2023-09-26T04:14:33.192Z,13.26
2023-09-26T04:17:01.348Z,13.24
2023-09-26T04:19:28.800Z,13.20
2023-09-26T04:21:56.497Z,13.19
2023-09-26T04:24:23.737Z,13.16
2023-09-26T04:26:51.086Z,13.14
2023-09-26T04:29:18.636Z,13.11
2023-09-26T04:31:45.977Z,13.08
2023-09-26T04:34:13.379Z,13.07
2023-09-26T04:36:41.577Z,13.05
2023-09-26T04:39:10.250Z,13.01
2023-09-26T04:41:37.747Z,13.00
2023-09-26T04:44:07.833Z,12.99
2023-09-26T04:46:35.241Z,12.98
2023-09-26T04:49:02.730Z,12.97
2023-09-26T04:51:30.191Z,12.95
2023-09-26T04:53:59.489Z,12.92
2023-09-26T04:56:26.904Z,12.92
2023-09-26T04:58:54.310Z,12.90
2023-09-26T05:01:26.046Z,12.87
2023-09-26T05:03:54.246Z,12.86
2023-09-26T05:06:21.825Z,12.83
2023-09-26T05:08:50.234Z,12.82
2023-09-26T05:11:17.780Z,12.82
2023-09-26T05:13:45.757Z,12.80
2023-09-26T05:16:15.571Z,12.81
2023-09-26T05:18:43.231Z,12.82
2023-09-26T05:21:11.049Z,12.81
2023-09-26T05:23:38.623Z,12.80
2023-09-26T05:26:11.242Z,12.80
2023-09-26T05:28:39.059Z,12.79
2023-09-26T05:31:07.063Z,12.79
2023-09-26T05:33:35.852Z,12.79
2023-09-26T05:36:05.695Z,12.78
2023-09-26T05:38:33.346Z,12.77
2023-09-26T05:41:00.640Z,12.78
2023-09-26T05:43:30.820Z,12.78
2023-09-26T05:45:58.631Z,12.79
2023-09-26T05:48:26.032Z,12.79
2023-09-26T05:51:00.903Z,12.80
2023-09-26T05:53:28.360Z,12.82
2023-09-26T05:55:57.950Z,12.82
2023-09-26T05:58:25.570Z,12.83
2023-09-26T06:00:54.751Z,12.83
2023-09-26T06:03:22.733Z,12.84
2023-09-26T06:05:51.776Z,12.84
2023-09-26T06:08:19.521Z,12.85
2023-09-26T06:10:54.033Z,12.86
2023-09-26T06:13:21.884Z,12.89
2023-09-26T06:15:49.329Z,12.94
2023-09-26T06:18:16.700Z,12.99
2023-09-26T06:20:45.842Z,13.02
2023-09-26T06:23:14.106Z,13.07
2023-09-26T06:25:54.088Z,13.11
2023-09-26T06:28:23.219Z,13.14
2023-09-26T06:30:50.660Z,13.18
2023-09-26T06:33:18.169Z,13.23
2023-09-26T06:35:45.513Z,13.29
2023-09-26T06:38:13.179Z,13.33
2023-09-26T06:40:41.025Z,13.41
2023-09-26T06:43:08.691Z,13.48
2023-09-26T06:45:39.748Z,13.56
2023-09-26T06:48:08.082Z,13.64
2023-09-26T06:50:35.407Z,13.76
2023-09-26T06:53:03.887Z,13.93
2023-09-26T06:55:31.688Z,14.02
2023-09-26T06:57:59.073Z,14.10
2023-09-26T07:00:26.630Z,14.18
2023-09-26T07:02:54.299Z,14.30
2023-09-26T07:05:21.839Z,14.38
2023-09-26T07:07:49.841Z,14.47
2023-09-26T07:10:17.139Z,14.60
2023-09-26T07:12:45.577Z,14.74
2023-09-26T07:15:13.943Z,14.89
2023-09-26T07:17:43.538Z,15.02
2023-09-26T07:20:14.887Z,15.23
2023-09-26T07:22:42.814Z,15.46
2023-09-26T07:25:12.360Z,15.65
2023-09-26T07:27:39.766Z,15.88
2023-09-26T07:30:09.036Z,16.13
2023-09-26T07:32:36.473Z,16.30
2023-09-26T07:35:04.874Z,16.48
2023-09-26T07:37:34.197Z,16.56
2023-09-26T07:40:04.573Z,16.64
2023-09-26T07:42:31.890Z,16.82
2023-09-26T07:45:02.077Z,17.03
2023-09-26T07:47:29.749Z,17.17
2023-09-26T07:49:57.223Z,17.24
2023-09-26T07:52:27.876Z,17.22
2023-09-26T07:54:55.647Z,17.19
2023-09-26T07:57:23.083Z,17.12
2023-09-26T07:59:50.904Z,17.12
2023-09-26T08:02:19.764Z,17.13
2023-09-26T08:04:47.553Z,17.19
2023-09-26T08:07:15.072Z,17.26
2023-09-26T08:09:42.786Z,17.38
2023-09-26T08:12:10.151Z,17.56
2023-09-26T08:14:37.636Z,17.73
2023-09-26T08:17:05.028Z,17.89
2023-09-26T08:19:32.829Z,18.01
2023-09-26T08:22:00.237Z,18.09
2023-09-26T08:24:27.767Z,18.14
2023-09-26T08:26:55.775Z,18.23
2023-09-26T08:29:23.089Z,18.36
2023-09-26T08:31:51.025Z,18.43
2023-09-26T08:34:18.836Z,18.49
2023-09-26T08:36:47.937Z,18.49
2023-09-26T08:39:15.594Z,18.45
2023-09-26T08:41:48.661Z,18.42
2023-09-26T08:44:16.217Z,18.38
2023-09-26T08:46:45.981Z,18.34
2023-09-26T08:49:13.750Z,18.29
2023-09-26T08:51:41.297Z,18.29
2023-09-26T08:54:09.177Z,18.30
2023-09-26T08:56:38.149Z,18.31
2023-09-26T08:59:08.142Z,18.26
2023-09-26T09:01:35.893Z,18.20
2023-09-26T09:04:03.614Z,18.18
2023-09-26T09:06:31.413Z,18.19
2023-09-26T09:09:11.702Z,18.25
2023-09-26T09:11:39.230Z,18.28
2023-09-26T09:14:07.719Z,18.26
2023-09-26T09:19:02.647Z,18.25
2023-09-26T09:21:34.572Z,18.25
2023-09-26T09:24:08.805Z,18.28
2023-09-26T09:26:37.720Z,18.33
2023-09-26T09:29:34.576Z,18.36
2023-09-26T09:32:02.091Z,18.39
2023-09-26T09:34:29.699Z,18.44
2023-09-26T09:37:00.397Z,18.55
2023-09-26T09:39:27.723Z,18.64
2023-09-26T09:42:02.372Z,18.73
2023-09-26T09:44:32.147Z,18.72
2023-09-26T09:47:04.363Z,18.71
2023-09-26T09:49:41.207Z,18.76
2023-09-26T09:52:11.608Z,18.84
2023-09-26T09:54:43.666Z,18.87
2023-09-26T09:57:11.497Z,18.87
2023-09-26T09:59:39.745Z,18.92
2023-09-26T10:02:07.783Z,19.08
2023-09-26T10:04:39.051Z,19.27
2023-09-26T10:07:08.173Z,19.43
2023-09-26T10:09:36.372Z,19.54
2023-09-26T10:12:04.019Z,19.65
2023-09-26T10:14:35.998Z,19.64
2023-09-26T10:17:06.114Z,19.63
2023-09-26T10:19:50.566Z,19.63
2023-09-26T10:22:24.941Z,19.65
2023-09-26T10:24:53.917Z,19.64
2023-09-26T10:30:28.227Z,19.75
2023-09-26T10:32:56.609Z,19.78
2023-09-26T10:35:26.692Z,19.83
2023-09-26T10:38:24.289Z,19.87
2023-09-26T10:40:52.709Z,19.88
2023-09-26T10:45:50.697Z,19.86
2023-09-26T10:48:20.463Z,19.84
2023-09-26T10:50:48.931Z,19.84
2023-09-26T10:53:16.599Z,19.91
2023-09-26T10:55:45.175Z,19.97
2023-09-26T10:58:20.675Z,19.99
2023-09-26T11:00:53.180Z,19.98
2023-09-26T11:03:20.986Z,19.93
2023-09-26T11:05:48.933Z,19.97
2023-09-26T11:11:03.884Z,20.05
2023-09-26T11:13:31.986Z,20.06
2023-09-26T11:15:59.782Z,20.10
2023-09-26T11:18:27.558Z,20.11
2023-09-26T11:21:02.488Z,20.14
2023-09-26T11:23:41.329Z,20.15
2023-09-26T11:26:09.861Z,20.13
2023-09-26T11:28:37.647Z,20.13
2023-09-26T11:31:06.596Z,20.12
2023-09-26T11:33:36.148Z,20.13
2023-09-26T11:36:05.035Z,20.13
2023-09-26T11:38:32.443Z,20.16
2023-09-26T11:40:59.930Z,20.18
2023-09-26T11:43:27.781Z,20.20
2023-09-26T11:46:04.863Z,20.21
2023-09-26T11:48:32.571Z,20.20
2023-09-26T11:51:00.584Z,20.19
2023-09-26T11:53:29.828Z,20.19
2023-09-26T11:55:58.932Z,20.19
2023-09-26T11:58:26.468Z,20.20
2023-09-26T12:00:53.985Z,20.20
2023-09-26T12:03:21.532Z,20.24
2023-09-26T12:05:49.124Z,20.24
2023-09-26T12:08:16.591Z,20.27
2023-09-26T12:10:44.782Z,20.30
2023-09-26T12:13:12.399Z,20.32
2023-09-26T12:15:40.033Z,20.29
2023-09-26T12:18:07.669Z,20.19
2023-09-26T12:20:35.328Z,20.14
2023-09-26T12:23:03.758Z,20.20
2023-09-26T12:25:31.739Z,20.27
2023-09-26T12:27:59.397Z,20.35
2023-09-26T12:30:27.011Z,20.41
2023-09-26T12:32:54.519Z,20.44
2023-09-26T12:35:22.191Z,20.47
2023-09-26T12:37:49.669Z,20.50
2023-09-26T12:40:17.152Z,20.54
2023-09-26T12:42:44.689Z,20.61
2023-09-26T12:45:12.504Z,20.66
2023-09-26T12:47:40.154Z,20.70
2023-09-26T12:50:11.381Z,20.72
2023-09-26T12:52:41.143Z,20.72
2023-09-26T12:55:10.725Z,20.75
2023-09-26T12:57:39.469Z,20.83
2023-09-26T13:00:12.450Z,20.88
2023-09-26T13:02:41.406Z,20.89
2023-09-26T13:05:09.740Z,20.90
2023-09-26T13:07:37.235Z,20.92
2023-09-26T13:10:06.951Z,20.92
2023-09-26T13:12:37.226Z,20.94
2023-09-26T13:15:08.086Z,20.96
2023-09-26T13:17:36.906Z,20.98
2023-09-26T13:20:06.755Z,20.97
2023-09-26T13:22:34.232Z,20.95
2023-09-26T13:25:01.697Z,21.01
2023-09-26T13:27:29.049Z,21.13
2023-09-26T13:29:56.430Z,21.22
2023-09-26T13:32:25.839Z,21.30
2023-09-26T13:34:53.414Z,21.30
2023-09-26T13:37:21.102Z,21.29
2023-09-26T13:39:48.514Z,21.29
2023-09-26T13:42:15.828Z,21.32
2023-09-26T13:44:43.416Z,21.33
2023-09-26T13:47:11.108Z,21.32
2023-09-26T13:49:38.681Z,21.31
2023-09-26T13:52:05.946Z,21.31
2023-09-26T13:54:35.135Z,21.31
2023-09-26T13:57:03.487Z,21.34
2023-09-26T13:59:30.789Z,21.36
2023-09-26T14:01:58.220Z,21.34
2023-09-26T14:04:25.846Z,21.31
2023-09-26T14:06:53.465Z,21.26
2023-09-26T14:09:20.889Z,21.16
2023-09-26T14:11:48.198Z,21.05
2023-09-26T14:14:16.709Z,20.97
2023-09-26T14:16:44.348Z,20.89
2023-09-26T14:19:12.802Z,20.87
2023-09-26T14:21:41.042Z,20.87
2023-09-26T14:24:09.067Z,20.90
2023-09-26T14:26:36.620Z,20.94
2023-09-26T14:29:04.307Z,20.96
2023-09-26T14:31:31.579Z,20.98
2023-09-26T14:33:58.991Z,20.96
2023-09-26T14:36:26.550Z,20.95
2023-09-26T14:38:54.268Z,20.93
2023-09-26T14:41:21.829Z,20.87
2023-09-26T14:43:49.537Z,20.81
2023-09-26T14:46:16.890Z,20.76
2023-09-26T14:48:44.657Z,20.72
2023-09-26T14:51:14.855Z,20.70
2023-09-26T14:53:42.401Z,20.68
2023-09-26T14:56:10.579Z,20.69
2023-09-26T14:58:40.026Z,20.70
2023-09-26T15:01:10.307Z,20.70
2023-09-26T15:03:38.216Z,20.72
2023-09-26T15:06:06.760Z,20.72
2023-09-26T15:08:35.911Z,20.70
2023-09-26T15:11:03.757Z,20.68
2023-09-26T15:13:31.086Z,20.68
2023-09-26T15:16:07.973Z,20.68
2023-09-26T15:18:35.892Z,20.64
2023-09-26T15:21:03.692Z,20.60
2023-09-26T15:23:31.235Z,20.56
2023-09-26T15:25:58.595Z,20.53
2023-09-26T15:28:26.232Z,20.48
2023-09-26T15:30:54.574Z,20.41
2023-09-26T15:33:21.965Z,20.37
2023-09-26T15:35:49.469Z,20.32
2023-09-26T15:38:16.862Z,20.28
2023-09-26T15:40:44.368Z,20.24
2023-09-26T15:43:12.059Z,20.21
2023-09-26T15:45:42.066Z,20.19
2023-09-26T15:48:09.554Z,20.16
2023-09-26T15:50:36.925Z,20.12
2023-09-26T15:53:05.565Z,20.07
2023-09-26T15:55:33.034Z,20.04
2023-09-26T15:58:00.555Z,20.01
2023-09-26T16:00:28.011Z,19.94
2023-09-26T16:02:55.451Z,19.90
2023-09-26T16:05:23.121Z,19.86
2023-09-26T16:07:51.219Z,19.83
2023-09-26T16:10:19.660Z,19.79
2023-09-26T16:13:06.421Z,19.78
2023-09-26T16:15:35.236Z,19.75
2023-09-26T16:18:03.576Z,19.72
2023-09-26T16:20:30.964Z,19.69
2023-09-26T16:22:58.335Z,19.65
2023-09-26T16:25:25.728Z,19.61
2023-09-26T16:27:53.028Z,19.57
2023-09-26T16:30:20.458Z,19.55
2023-09-26T16:32:47.928Z,19.51
2023-09-26T16:35:16.063Z,19.48
2023-09-26T16:37:43.516Z,19.44
2023-09-26T16:40:11.849Z,19.39
2023-09-26T16:42:41.433Z,19.34
2023-09-26T16:45:09.385Z,19.27
2023-09-26T16:47:37.950Z,19.21
2023-09-26T16:50:05.760Z,19.17
2023-09-26T16:52:35.919Z,19.12
2023-09-26T16:55:04.095Z,19.08
2023-09-26T16:57:31.624Z,19.03
2023-09-26T16:59:59.271Z,18.98
2023-09-26T17:02:26.875Z,18.93
2023-09-26T17:04:54.929Z,18.88
2023-09-26T17:07:22.637Z,18.83
2023-09-26T17:09:51.917Z,18.77
2023-09-26T17:12:19.501Z,18.70
2023-09-26T17:14:48.134Z,18.64
2023-09-26T17:17:15.509Z,18.57
2023-09-26T17:19:43.175Z,18.50
2023-09-26T17:22:12.044Z,18.44
2023-09-26T17:24:39.674Z,18.37
2023-09-26T17:27:06.942Z,18.33
2023-09-26T17:29:34.319Z,18.29
2023-09-26T17:32:01.902Z,18.24
2023-09-26T17:34:29.598Z,18.19
2023-09-26T17:36:56.976Z,18.16
2023-09-26T17:39:25.147Z,18.10
2023-09-26T17:41:52.718Z,18.03
2023-09-26T17:44:20.159Z,17.96
2023-09-26T17:46:50.670Z,17.88
2023-09-26T17:49:18.404Z,17.79
2023-09-26T17:51:45.806Z,17.71
2023-09-26T17:54:13.121Z,17.64
2023-09-26T17:56:40.937Z,17.59
2023-09-26T17:59:08.569Z,17.54
2023-09-26T18:01:35.981Z,17.49
2023-09-26T18:04:04.007Z,17.44
2023-09-26T18:06:31.338Z,17.40
2023-09-26T18:08:58.581Z,17.37
2023-09-26T18:11:26.161Z,17.32
2023-09-26T18:13:53.485Z,17.29
2023-09-26T18:16:20.864Z,17.25
2023-09-26T18:18:48.348Z,17.24
2023-09-26T18:21:15.586Z,17.21
2023-09-26T18:23:46.108Z,17.21
2023-09-26T18:26:13.498Z,17.18
2023-09-26T18:28:40.895Z,17.15
2023-09-26T18:31:08.245Z,17.14
2023-09-26T18:33:36.057Z,17.11
2023-09-26T18:36:07.051Z,17.08
2023-09-26T18:38:36.878Z,17.05
2023-09-26T18:41:04.971Z,17.03
2023-09-26T18:43:34.158Z,17.01
2023-09-26T18:46:01.747Z,17.00
2023-09-26T18:48:29.090Z,16.98
2023-09-26T18:51:03.202Z,16.93
2023-09-26T18:53:30.826Z,16.90
2023-09-26T18:55:58.299Z,16.89
2023-09-26T18:58:25.759Z,16.85
2023-09-26T19:00:53.141Z,16.83
2023-09-26T19:03:22.050Z,16.81
2023-09-26T19:05:51.970Z,16.77
2023-09-26T19:08:19.384Z,16.75
2023-09-26T19:10:47.145Z,16.75
2023-09-26T19:13:14.786Z,16.76
2023-09-26T19:15:42.454Z,16.77
2023-09-26T19:18:09.882Z,16.77
2023-09-26T19:20:37.307Z,16.76
2023-09-26T19:23:04.885Z,16.76
2023-09-26T19:25:38.754Z,16.75
2023-09-26T19:28:12.620Z,16.74
2023-09-26T19:30:42.520Z,16.73
2023-09-26T19:33:10.096Z,16.71
2023-09-26T19:35:37.842Z,16.67
2023-09-26T19:38:06.710Z,16.64
2023-09-26T19:40:34.201Z,16.61
2023-09-26T19:43:03.912Z,16.60
2023-09-26T19:45:33.196Z,16.57
2023-09-26T19:48:00.809Z,16.56
2023-09-26T19:50:28.224Z,16.54
2023-09-26T19:52:55.559Z,16.54
2023-09-26T19:55:24.322Z,16.52
2023-09-26T19:57:52.694Z,16.54
2023-09-26T20:00:20.438Z,16.51
2023-09-26T20:02:47.920Z,16.50
2023-09-26T20:05:17.492Z,16.48
2023-09-26T20:07:45.497Z,16.47
2023-09-26T20:10:13.118Z,16.44
2023-09-26T20:12:50.355Z,16.41
2023-09-26T20:15:24.382Z,16.37
2023-09-26T20:17:52.623Z,16.34
2023-09-26T20:20:26.963Z,16.28
2023-09-26T20:22:58.142Z,16.24
2023-09-26T20:25:25.866Z,16.19
2023-09-26T20:27:54.278Z,16.15
2023-09-26T20:30:22.301Z,16.09
2023-09-26T20:32:50.324Z,16.06
2023-09-26T20:35:17.893Z,16.02
2023-09-26T20:37:45.862Z,15.98
2023-09-26T20:40:16.149Z,15.95
2023-09-26T20:42:44.990Z,15.93
2023-09-26T20:45:13.103Z,15.90
2023-09-26T20:47:43.464Z,15.86
2023-09-26T20:50:14.038Z,15.82
2023-09-26T20:52:42.075Z,15.79
2023-09-26T20:55:10.032Z,15.76
2023-09-26T20:57:37.760Z,15.73
2023-09-26T21:00:05.970Z,15.70
2023-09-26T21:02:35.028Z,15.68
2023-09-26T21:05:02.717Z,15.65
2023-09-26T21:07:30.567Z,15.62
2023-09-26T21:09:58.942Z,15.58
2023-09-26T21:12:27.005Z,15.54
2023-09-26T21:14:54.680Z,15.52
2023-09-26T21:17:22.134Z,15.50
2023-09-26T21:19:49.616Z,15.48
2023-09-26T21:22:17.016Z,15.48
2023-09-26T21:24:45.132Z,15.47
2023-09-26T21:27:12.681Z,15.48
2023-09-26T21:29:39.963Z,15.48
2023-09-26T21:32:07.462Z,15.49
2023-09-26T21:34:34.768Z,15.48
2023-09-26T21:37:02.006Z,15.48
2023-09-26T21:39:29.285Z,15.49
2023-09-26T21:41:56.917Z,15.48
2023-09-26T21:44:24.328Z,15.48
2023-09-26T21:46:55.396Z,15.46
2023-09-26T21:49:22.842Z,15.44
2023-09-26T21:51:50.211Z,15.42
2023-09-26T21:54:17.699Z,15.42
2023-09-26T21:56:46.301Z,15.40
2023-09-26T21:59:13.804Z,15.36
2023-09-26T22:01:41.389Z,15.35
2023-09-26T22:04:08.785Z,15.31
2023-09-26T22:06:36.348Z,15.28
2023-09-26T22:09:03.958Z,15.26
2023-09-26T22:11:31.575Z,15.26
2023-09-26T22:13:58.949Z,15.25
2023-09-26T22:16:27.812Z,15.26
2023-09-26T22:18:55.474Z,15.26
2023-09-26T22:21:22.927Z,15.27
2023-09-26T22:23:50.612Z,15.26
2023-09-26T22:26:18.142Z,15.27
2023-09-26T22:28:45.557Z,15.26
2023-09-26T22:31:12.965Z,15.27
2023-09-26T22:33:42.277Z,15.28
2023-09-26T22:36:09.676Z,15.28
2023-09-26T22:38:37.049Z,15.25
2023-09-26T22:41:04.494Z,15.24
2023-09-26T22:43:31.812Z,15.19
2023-09-26T22:46:02.118Z,15.18
2023-09-26T22:48:29.818Z,15.17
2023-09-26T22:50:57.260Z,15.14
2023-09-26T22:53:25.519Z,15.12
2023-09-26T22:55:53.052Z,15.09
2023-09-26T22:58:20.372Z,15.05
2023-09-26T23:00:47.738Z,15.02
2023-09-26T23:03:16.240Z,14.97
2023-09-26T23:05:43.769Z,14.95
2023-09-26T23:08:11.627Z,14.93
2023-09-26T23:10:39.273Z,14.92
2023-09-26T23:13:09.106Z,14.89
2023-09-26T23:15:36.666Z,14.85
2023-09-26T23:18:04.847Z,14.84
2023-09-26T23:20:39.503Z,14.81
2023-09-26T23:23:07.974Z,14.79
2023-09-26T23:25:35.711Z,14.77
2023-09-26T23:28:06.870Z,14.76
2023-09-26T23:30:34.197Z,14.73
2023-09-26T23:33:01.788Z,14.71
2023-09-26T23:35:30.440Z,14.68
2023-09-26T23:37:57.806Z,14.65
2023-09-26T23:40:25.054Z,14.63
2023-09-26T23:42:53.416Z,14.61
2023-09-26T23:45:21.199Z,14.58
2023-09-26T23:47:48.737Z,14.56
2023-09-26T23:50:16.460Z,14.55
2023-09-26T23:52:45.335Z,14.52
2023-09-26T23:55:13.205Z,14.52
2023-09-26T23:57:42.128Z,14.50
